createdAt,value
2017-10-05T00:02:11.930Z,1.50
2017-10-05T00:04:37.940Z,1.80
2017-10-05T00:07:04.143Z,1.50
2017-10-05T00:09:30.158Z,1.50
2017-10-05T00:11:56.180Z,1.50
2017-10-05T00:14:22.198Z,1.30
2017-10-05T00:16:48.207Z,1.40
2017-10-05T00:19:14.527Z,1.50
2017-10-05T00:21:40.526Z,1.30
2017-10-05T00:24:07.301Z,1.50
2017-10-05T00:26:33.330Z,1.40
2017-10-05T00:28:59.346Z,1.80
2017-10-05T00:31:25.385Z,1.50
2017-10-05T00:33:51.465Z,1.40
2017-10-05T00:36:18.230Z,1.67
2017-10-05T00:38:44.250Z,1.70
2017-10-05T00:41:10.297Z,1.65
2017-10-05T00:43:36.315Z,1.70
2017-10-05T00:46:02.386Z,1.50
2017-10-05T00:48:29.166Z,1.50
2017-10-05T00:50:55.183Z,1.50
2017-10-05T00:53:21.206Z,1.40
2017-10-05T00:55:47.627Z,1.50
2017-10-05T00:58:13.642Z,2.03
2017-10-05T01:00:39.683Z,1.70
2017-10-05T01:03:05.726Z,2.00
2017-10-05T01:05:31.754Z,2.17
2017-10-05T01:07:57.776Z,2.45
2017-10-05T01:10:23.812Z,2.80
2017-10-05T01:12:50.296Z,2.60
2017-10-05T01:15:16.342Z,2.80
2017-10-05T01:17:42.394Z,3.87
2017-10-05T01:20:08.466Z,4.20
2017-10-05T01:22:34.480Z,4.87
2017-10-05T01:25:00.566Z,4.70
2017-10-05T01:27:26.783Z,5.33
2017-10-05T01:29:53.027Z,4.97
2017-10-05T01:32:19.090Z,4.95
2017-10-05T01:34:45.162Z,5.97
2017-10-05T01:37:12.679Z,5.60
2017-10-05T01:39:38.686Z,5.10
2017-10-05T01:42:05.018Z,5.20
2017-10-05T01:44:31.054Z,5.30
2017-10-05T01:46:57.086Z,5.20
2017-10-05T01:49:23.146Z,5.50
2017-10-05T01:51:49.906Z,5.60
2017-10-05T01:54:15.930Z,5.80
2017-10-05T01:56:41.982Z,5.60
2017-10-05T01:59:07.990Z,5.10
2017-10-05T02:01:33.994Z,5.70
2017-10-05T02:04:00.038Z,5.80
2017-10-05T02:06:26.052Z,5.70
2017-10-05T02:08:52.074Z,6.07
2017-10-05T02:11:18.126Z,5.80
2017-10-05T02:13:44.146Z,6.45
2017-10-05T02:16:10.155Z,6.32
2017-10-05T02:18:36.182Z,6.97
2017-10-05T02:21:02.196Z,6.93
2017-10-05T02:23:28.234Z,6.50
2017-10-05T02:25:54.503Z,6.73
2017-10-05T02:28:21.294Z,7.05
2017-10-05T02:30:47.427Z,6.70
2017-10-05T02:33:13.494Z,6.80
2017-10-05T02:35:40.356Z,6.20
2017-10-05T02:38:06.388Z,6.10
2017-10-05T02:40:32.549Z,6.50
2017-10-05T02:42:58.582Z,6.00
2017-10-05T02:45:24.642Z,6.10
2017-10-05T02:47:50.672Z,6.32
2017-10-05T02:50:16.703Z,6.10
2017-10-05T02:52:42.790Z,6.15
2017-10-05T02:55:09.542Z,6.43
2017-10-05T02:57:36.293Z,6.00
2017-10-05T03:00:02.622Z,6.12
2017-10-05T03:02:28.639Z,5.85
2017-10-05T03:04:54.659Z,6.70
2017-10-05T03:07:20.702Z,6.28
2017-10-05T03:09:46.718Z,6.40
2017-10-05T03:12:12.734Z,6.10
2017-10-05T03:14:38.788Z,6.20
2017-10-05T03:17:04.794Z,6.80
2017-10-05T03:19:30.806Z,7.20
2017-10-05T03:21:56.978Z,7.00
2017-10-05T03:24:23.085Z,6.47
2017-10-05T03:26:49.104Z,7.40
2017-10-05T03:29:15.170Z,6.85
2017-10-05T03:31:41.925Z,6.60
2017-10-05T03:34:07.993Z,6.70
2017-10-05T03:36:34.030Z,7.10
2017-10-05T03:39:00.048Z,6.50
2017-10-05T03:41:26.067Z,6.23
2017-10-05T03:43:52.455Z,7.07
2017-10-05T03:46:18.466Z,7.00
2017-10-05T03:48:44.497Z,7.30
2017-10-05T03:51:10.934Z,7.22
2017-10-05T03:53:37.023Z,6.90
2017-10-05T03:56:03.827Z,7.25
2017-10-05T03:58:29.870Z,7.12
2017-10-05T04:00:55.890Z,7.93
2017-10-05T04:03:21.979Z,7.80
2017-10-05T04:05:47.987Z,7.35
2017-10-05T04:08:14.091Z,6.90
2017-10-05T04:10:40.906Z,7.70
2017-10-05T04:13:06.959Z,8.13
2017-10-05T04:15:32.982Z,8.73
2017-10-05T04:17:59.046Z,9.05
2017-10-05T04:20:25.084Z,9.30
2017-10-05T04:22:51.097Z,8.95
2017-10-05T04:25:17.151Z,9.65
2017-10-05T04:27:43.934Z,9.20
2017-10-05T04:30:09.954Z,10.38
2017-10-05T04:32:36.543Z,10.43
2017-10-05T04:35:03.746Z,8.90
2017-10-05T04:37:29.763Z,9.63
2017-10-05T04:39:56.083Z,9.57
2017-10-05T04:42:22.119Z,9.10
2017-10-05T04:44:48.138Z,9.60
2017-10-05T04:47:14.555Z,9.60
2017-10-05T04:49:40.570Z,10.00
2017-10-05T04:52:06.606Z,8.98
2017-10-05T04:54:32.931Z,9.60
2017-10-05T04:56:58.975Z,9.60
2017-10-05T04:59:25.003Z,9.00
2017-10-05T05:01:51.089Z,8.38
2017-10-05T05:04:17.127Z,9.00
2017-10-05T05:06:43.159Z,9.10
2017-10-05T05:09:09.214Z,8.90
2017-10-05T05:11:35.240Z,8.02
2017-10-05T05:14:01.613Z,7.90
2017-10-05T05:16:27.631Z,7.15
2017-10-05T05:18:53.663Z,7.45
2017-10-05T05:21:19.686Z,6.73
2017-10-05T05:23:45.709Z,7.30
2017-10-05T05:26:11.774Z,7.90
2017-10-05T05:28:38.147Z,7.47
2017-10-05T05:31:04.223Z,8.00
2017-10-05T05:33:30.258Z,7.28
2017-10-05T05:35:57.235Z,7.40
2017-10-05T05:38:23.270Z,7.40
2017-10-05T05:40:49.322Z,7.60
2017-10-05T05:43:15.358Z,7.10
2017-10-05T05:45:41.390Z,6.28
2017-10-05T05:48:08.174Z,6.40
2017-10-05T05:50:34.262Z,6.10
2017-10-05T05:53:01.110Z,5.77
2017-10-05T05:55:40.734Z,5.57
2017-10-05T05:58:07.346Z,5.10
2017-10-05T06:00:33.378Z,5.60
2017-10-05T06:02:59.410Z,4.93
2017-10-05T06:05:26.211Z,4.70
2017-10-05T06:07:52.243Z,4.60
2017-10-05T06:10:18.286Z,4.90
2017-10-05T06:12:44.340Z,3.50
2017-10-05T06:15:10.391Z,3.70
2017-10-05T06:17:36.427Z,3.25
2017-10-05T06:20:02.632Z,3.00
2017-10-05T06:22:28.657Z,2.87
2017-10-05T06:24:54.686Z,3.00
2017-10-05T06:27:20.714Z,3.00
2017-10-05T06:29:46.734Z,3.10
2017-10-05T06:32:12.794Z,2.72
2017-10-05T06:34:38.870Z,2.40
2017-10-05T06:37:04.935Z,2.58
2017-10-05T06:39:30.982Z,2.20
2017-10-05T06:41:57.778Z,2.30
2017-10-05T06:44:23.813Z,2.20
2017-10-05T06:46:49.854Z,2.60
2017-10-05T06:49:16.645Z,2.60
2017-10-05T06:51:42.674Z,2.80
2017-10-05T06:54:08.780Z,2.75
2017-10-05T06:56:34.831Z,2.72
2017-10-05T06:59:00.847Z,2.80
2017-10-05T07:01:26.900Z,3.20
2017-10-05T07:03:52.910Z,2.80
2017-10-05T07:06:18.981Z,2.70
2017-10-05T07:08:45.016Z,3.00
2017-10-05T07:11:11.037Z,3.20
2017-10-05T07:13:37.445Z,2.85
2017-10-05T07:16:03.478Z,3.03
2017-10-05T07:18:29.498Z,2.73
2017-10-05T07:20:55.827Z,2.55
2017-10-05T07:23:21.854Z,3.10
2017-10-05T07:25:47.866Z,3.40
2017-10-05T07:28:13.918Z,3.60
2017-10-05T07:30:39.947Z,4.10
2017-10-05T07:33:05.967Z,3.80
2017-10-05T07:35:32.018Z,3.60
2017-10-05T07:37:58.041Z,3.50
2017-10-05T07:40:24.060Z,3.60
2017-10-05T07:42:50.139Z,3.03
2017-10-05T07:45:16.170Z,3.50
2017-10-05T07:47:42.195Z,3.40
2017-10-05T07:50:08.806Z,3.70
2017-10-05T07:52:34.937Z,3.87
2017-10-05T07:55:02.202Z,3.50
2017-10-05T07:57:29.854Z,3.10
2017-10-05T07:59:55.912Z,3.40
2017-10-05T08:02:21.926Z,3.30
2017-10-05T08:04:47.973Z,3.00
2017-10-05T08:07:14.745Z,2.95
2017-10-05T08:09:40.771Z,2.78
2017-10-05T08:12:10.479Z,2.40
2017-10-05T08:14:36.514Z,2.70
2017-10-05T08:17:02.558Z,2.30
2017-10-05T08:19:29.103Z,2.50
2017-10-05T08:21:55.118Z,2.20
2017-10-05T08:24:21.218Z,2.60
2017-10-05T08:26:47.258Z,2.10
2017-10-05T08:29:13.298Z,1.90
2017-10-05T08:31:39.342Z,2.10
2017-10-05T08:34:06.175Z,1.77
2017-10-05T08:36:32.926Z,1.75
2017-10-05T08:38:58.943Z,1.30
2017-10-05T08:41:25.730Z,1.10
2017-10-05T08:43:51.751Z,1.20
2017-10-05T08:46:17.775Z,1.10
2017-10-05T08:48:43.829Z,12.45
2017-10-05T08:51:10.653Z,12.80
2017-10-05T08:53:36.682Z,4.93
2017-10-05T08:56:02.706Z,1.10
2017-10-05T08:58:28.719Z,1.27
2017-10-05T09:00:55.071Z,1.20
2017-10-05T09:03:21.850Z,1.30
2017-10-05T09:05:47.871Z,1.20
2017-10-05T09:08:14.123Z,1.30
2017-10-05T09:10:40.155Z,1.12
2017-10-05T09:13:06.231Z,1.07
2017-10-05T09:15:32.305Z,1.00
2017-10-05T09:17:58.310Z,1.12
2017-10-05T09:20:24.334Z,1.17
2017-10-05T09:22:50.394Z,1.50
2017-10-05T09:25:17.176Z,1.00
2017-10-05T09:27:43.209Z,1.00
2017-10-05T09:30:09.231Z,1.35
2017-10-05T09:32:35.299Z,1.30
2017-10-05T09:35:01.353Z,1.42
2017-10-05T09:37:27.394Z,1.30
2017-10-05T09:39:53.437Z,1.30
2017-10-05T09:42:19.507Z,1.30
2017-10-05T09:44:45.561Z,1.35
2017-10-05T09:47:11.584Z,1.40
2017-10-05T09:49:37.631Z,1.50
2017-10-05T09:52:03.662Z,1.33
2017-10-05T09:54:30.443Z,1.20
2017-10-05T09:56:56.482Z,1.30
2017-10-05T09:59:22.495Z,1.30
2017-10-05T10:01:49.410Z,1.30
2017-10-05T10:04:15.628Z,1.30
2017-10-05T10:06:42.390Z,1.30
2017-10-05T10:09:08.408Z,1.40
2017-10-05T10:11:34.447Z,1.30
2017-10-05T10:14:00.470Z,1.70
2017-10-05T10:16:26.519Z,1.55
2017-10-05T10:18:52.912Z,1.27
2017-10-05T10:21:18.951Z,1.20
2017-10-05T10:23:44.967Z,1.40
2017-10-05T10:26:11.271Z,1.67
2017-10-05T10:28:37.294Z,1.60
2017-10-05T10:31:03.294Z,1.80
2017-10-05T10:33:29.355Z,1.87
2017-10-05T10:35:55.384Z,1.60
2017-10-05T10:38:21.432Z,2.10
2017-10-05T10:40:47.506Z,2.10
2017-10-05T10:43:13.542Z,2.20
2017-10-05T10:45:39.558Z,2.50
2017-10-05T10:48:05.638Z,2.60
2017-10-05T10:50:32.422Z,2.33
2017-10-05T10:52:58.443Z,2.80
2017-10-05T10:55:24.512Z,2.40
2017-10-05T10:57:51.275Z,2.78
2017-10-05T11:00:17.308Z,2.60
2017-10-05T11:02:43.654Z,2.93
2017-10-05T11:05:09.910Z,3.73
2017-10-05T11:07:36.078Z,3.03
2017-10-05T11:10:04.257Z,3.00
2017-10-05T11:12:30.282Z,2.50
2017-10-05T11:14:56.311Z,2.20
2017-10-05T11:17:22.358Z,2.30
2017-10-05T11:19:50.124Z,2.30
2017-10-05T11:22:17.015Z,2.70
2017-10-05T11:24:48.417Z,2.62
2017-10-05T11:27:14.443Z,1.85
2017-10-05T11:29:40.487Z,1.98
2017-10-05T11:32:07.295Z,1.92
2017-10-05T11:34:33.317Z,1.60
2017-10-05T11:37:00.605Z,1.62
2017-10-05T11:39:27.415Z,0.90
2017-10-05T11:41:53.450Z,0.90
2017-10-05T11:44:19.499Z,0.88
2017-10-05T11:46:46.330Z,0.80
2017-10-05T11:49:14.306Z,1.10
2017-10-05T11:51:41.088Z,1.00
2017-10-05T11:54:07.179Z,1.30
2017-10-05T11:56:33.226Z,0.90
2017-10-05T11:58:59.246Z,1.00
2017-10-05T12:01:25.287Z,1.20
2017-10-05T12:03:51.703Z,1.20
2017-10-05T12:06:17.852Z,1.20
2017-10-05T12:08:43.886Z,1.20
2017-10-05T12:11:09.943Z,1.27
2017-10-05T12:13:35.956Z,1.10
2017-10-05T12:16:01.994Z,1.30
2017-10-05T12:18:28.035Z,1.30
2017-10-05T12:20:54.063Z,0.90
2017-10-05T12:23:20.095Z,1.10
2017-10-05T12:25:46.146Z,1.00
2017-10-05T12:28:19.850Z,1.30
2017-10-05T12:30:46.623Z,1.50
2017-10-05T12:33:12.699Z,1.30
2017-10-05T12:35:38.727Z,1.20
2017-10-05T12:38:05.479Z,1.02
2017-10-05T12:40:32.363Z,1.20
2017-10-05T12:42:58.367Z,1.00
2017-10-05T12:45:24.383Z,1.20
2017-10-05T12:47:50.608Z,1.10
2017-10-05T12:50:16.643Z,1.20
2017-10-05T12:52:42.671Z,1.30
2017-10-05T12:55:08.984Z,1.40
2017-10-05T12:57:35.007Z,1.30
2017-10-05T13:00:01.067Z,1.33
2017-10-05T13:02:27.106Z,1.20
2017-10-05T13:04:53.140Z,1.40
2017-10-05T13:07:19.907Z,1.33
2017-10-05T13:09:45.954Z,1.23
2017-10-05T13:12:11.979Z,1.30
2017-10-05T13:14:38.008Z,1.30
2017-10-05T13:17:04.119Z,1.10
2017-10-05T13:19:30.482Z,1.30
2017-10-05T13:21:56.499Z,1.27
2017-10-05T13:24:22.555Z,1.15
2017-10-05T13:26:48.670Z,1.30
2017-10-05T13:29:15.431Z,1.30
2017-10-05T13:31:46.499Z,1.30
2017-10-05T13:34:12.566Z,1.30
2017-10-05T13:36:39.335Z,1.40
2017-10-05T13:39:05.355Z,1.40
2017-10-05T13:41:31.371Z,1.40
2017-10-05T13:43:57.391Z,1.40
2017-10-05T13:46:24.600Z,1.30
2017-10-05T13:48:51.346Z,1.50
2017-10-05T13:51:18.119Z,1.20
2017-10-05T13:53:44.186Z,1.70
2017-10-05T13:56:12.166Z,1.50
2017-10-05T13:58:38.212Z,1.60
2017-10-05T14:01:05.007Z,1.40
2017-10-05T14:03:31.019Z,1.60
2017-10-05T14:05:57.051Z,1.55
2017-10-05T14:08:23.123Z,1.62
2017-10-05T14:10:49.149Z,1.83
2017-10-05T14:13:15.206Z,1.55
2017-10-05T14:15:41.486Z,1.42
2017-10-05T14:18:08.250Z,1.58
2017-10-05T14:20:34.285Z,1.50
2017-10-05T14:23:00.593Z,1.60
2017-10-05T14:25:26.623Z,1.60
2017-10-05T14:27:52.655Z,1.57
2017-10-05T14:30:18.734Z,1.62
2017-10-05T14:32:45.496Z,1.48
2017-10-05T14:35:11.517Z,1.60
2017-10-05T14:37:37.563Z,1.70
2017-10-05T14:40:03.578Z,1.80
2017-10-05T14:42:29.611Z,1.40
2017-10-05T14:44:55.670Z,1.70
2017-10-05T14:47:22.028Z,1.80
2017-10-05T14:49:48.075Z,1.73
2017-10-05T14:52:14.105Z,1.80
2017-10-05T14:54:40.501Z,1.67
2017-10-05T14:57:06.519Z,1.90
2017-10-05T14:59:32.544Z,1.80
2017-10-05T15:01:58.566Z,1.90
2017-10-05T15:04:24.594Z,1.95
2017-10-05T15:06:50.934Z,2.10
2017-10-05T15:09:16.958Z,2.50
2017-10-05T15:11:42.982Z,1.70
2017-10-05T15:14:09.282Z,2.10
2017-10-05T15:16:35.298Z,2.00
2017-10-05T15:19:01.337Z,2.10
2017-10-05T15:21:27.386Z,2.58
2017-10-05T15:23:53.399Z,2.05
2017-10-05T15:26:19.426Z,2.37
2017-10-05T15:28:45.489Z,2.27
2017-10-05T15:31:12.243Z,2.30
2017-10-05T15:33:39.023Z,2.62
2017-10-05T15:36:05.073Z,2.17
2017-10-05T15:38:31.085Z,2.25
2017-10-05T15:40:57.103Z,2.50
2017-10-05T15:43:23.291Z,2.60
2017-10-05T15:45:49.354Z,2.50
2017-10-05T15:48:15.388Z,2.40
2017-10-05T15:50:41.459Z,2.40
2017-10-05T15:53:07.476Z,2.50
2017-10-05T15:55:33.522Z,2.57
2017-10-05T15:57:59.560Z,3.00
2017-10-05T16:00:25.598Z,2.50
2017-10-05T16:02:51.618Z,2.40
2017-10-05T16:05:17.895Z,2.70
2017-10-05T16:07:43.924Z,2.50
2017-10-05T16:10:09.935Z,2.10
2017-10-05T16:12:36.159Z,2.42
2017-10-05T16:15:02.246Z,2.05
2017-10-05T16:17:28.255Z,2.37
2017-10-05T16:19:54.633Z,2.00
2017-10-05T16:22:20.656Z,2.20
2017-10-05T16:24:46.742Z,2.20
2017-10-05T16:27:13.534Z,2.50
2017-10-05T16:29:39.547Z,2.20
2017-10-05T16:32:05.604Z,2.30
2017-10-05T16:34:31.895Z,2.55
2017-10-05T16:36:57.938Z,2.40
2017-10-05T16:39:23.965Z,2.20
2017-10-05T16:41:50.392Z,2.70
2017-10-05T16:44:16.416Z,2.40
2017-10-05T16:46:42.446Z,2.80
2017-10-05T16:49:08.518Z,2.53
2017-10-05T16:51:34.542Z,2.40
2017-10-05T16:54:00.558Z,2.65
2017-10-05T16:56:26.582Z,3.20
2017-10-05T16:58:52.818Z,3.08
2017-10-05T17:01:18.874Z,2.75
2017-10-05T17:03:44.886Z,2.80
2017-10-05T17:06:11.191Z,2.50
2017-10-05T17:08:37.213Z,3.00
2017-10-05T17:11:03.487Z,3.42
2017-10-05T17:13:29.568Z,3.03
2017-10-05T17:15:55.603Z,2.87
2017-10-05T17:18:21.635Z,2.80
2017-10-05T17:20:47.991Z,3.40
2017-10-05T17:23:14.022Z,3.33
2017-10-05T17:25:40.792Z,3.20
2017-10-05T17:28:06.842Z,3.10
2017-10-05T17:30:32.867Z,3.10
2017-10-05T17:32:58.878Z,4.40
2017-10-05T17:35:24.931Z,4.15
2017-10-05T17:37:50.962Z,3.87
2017-10-05T17:40:16.974Z,3.12
2017-10-05T17:42:43.019Z,2.45
2017-10-05T17:45:09.799Z,3.00
2017-10-05T17:47:35.811Z,3.00
2017-10-05T17:50:01.878Z,2.75
2017-10-05T17:52:27.915Z,3.10
2017-10-05T17:54:53.922Z,3.23
2017-10-05T17:57:21.747Z,3.25
2017-10-05T17:59:47.780Z,3.40
2017-10-05T18:02:13.815Z,3.55
2017-10-05T18:04:39.867Z,3.90
2017-10-05T18:07:06.237Z,3.78
2017-10-05T18:09:32.243Z,3.70
2017-10-05T18:11:58.291Z,3.20
2017-10-05T18:14:24.715Z,3.20
2017-10-05T18:16:50.824Z,3.62
2017-10-05T18:19:16.867Z,3.67
2017-10-05T18:21:42.907Z,3.27
2017-10-05T18:24:08.935Z,3.90
2017-10-05T18:26:34.956Z,3.87
2017-10-05T18:29:00.990Z,3.83
2017-10-05T18:31:26.998Z,3.90
2017-10-05T18:33:53.060Z,3.80
2017-10-05T18:36:19.830Z,3.53
2017-10-05T18:38:45.862Z,3.55
2017-10-05T18:41:12.094Z,3.25
2017-10-05T18:43:38.102Z,3.87
2017-10-05T18:46:04.153Z,3.20
2017-10-05T18:48:30.263Z,3.40
2017-10-05T18:50:56.299Z,3.70
2017-10-05T18:53:22.323Z,4.00
2017-10-05T18:55:48.407Z,4.45
2017-10-05T18:58:15.162Z,4.28
2017-10-05T19:00:41.195Z,4.00
2017-10-05T19:03:07.403Z,3.80
2017-10-05T19:05:34.191Z,4.57
2017-10-05T19:08:00.228Z,3.83
2017-10-05T19:10:26.343Z,4.28
2017-10-05T19:12:52.674Z,4.10
2017-10-05T19:15:18.715Z,3.37
2017-10-05T19:17:45.493Z,4.00
2017-10-05T19:20:11.607Z,4.60
2017-10-05T19:22:37.647Z,3.78
2017-10-05T19:25:03.753Z,3.78
2017-10-05T19:27:29.773Z,4.03
2017-10-05T19:29:55.839Z,3.42
2017-10-05T19:32:22.043Z,3.67
2017-10-05T19:34:48.103Z,3.30
2017-10-05T19:37:14.131Z,3.35
2017-10-05T19:39:40.295Z,3.27
2017-10-05T19:42:06.328Z,2.80
2017-10-05T19:44:32.356Z,3.20
2017-10-05T19:46:58.576Z,3.37
2017-10-05T19:49:24.608Z,3.42
2017-10-05T19:51:50.635Z,3.70
2017-10-05T19:54:16.751Z,4.30
2017-10-05T19:56:42.803Z,3.80
2017-10-05T19:59:08.835Z,3.70
2017-10-05T20:01:34.884Z,3.60
2017-10-05T20:04:01.660Z,3.53
2017-10-05T20:06:27.683Z,3.40
2017-10-05T20:09:01.421Z,3.87
2017-10-05T20:11:28.223Z,3.35
2017-10-05T20:13:59.267Z,3.65
2017-10-05T20:16:25.539Z,3.50
2017-10-05T20:22:00.491Z,3.42
2017-10-05T20:24:36.332Z,3.80
2017-10-05T20:27:08.448Z,3.00
2017-10-05T20:29:37.339Z,57.03
2017-10-05T20:32:17.692Z,43.38
2017-10-05T20:34:43.748Z,34.53
2017-10-05T20:37:09.763Z,27.10
2017-10-05T20:39:35.820Z,4.25
2017-10-05T20:42:02.579Z,3.90
2017-10-05T20:44:29.356Z,3.70
2017-10-05T20:46:55.422Z,3.07
2017-10-05T20:49:21.433Z,2.87
2017-10-05T20:51:47.446Z,3.00
2017-10-05T20:54:13.511Z,3.05
2017-10-05T20:56:40.267Z,3.20
2017-10-05T20:59:06.298Z,3.55
2017-10-05T21:01:32.356Z,3.45
2017-10-05T21:03:58.395Z,3.80
2017-10-05T21:06:24.419Z,3.00
2017-10-05T21:08:50.455Z,3.60
2017-10-05T21:11:17.232Z,3.12
2017-10-05T21:13:43.255Z,3.10
2017-10-05T21:16:09.304Z,3.40
2017-10-05T21:18:35.320Z,2.90
2017-10-05T21:21:01.391Z,2.92
2017-10-05T21:23:28.160Z,3.35
2017-10-05T21:25:54.187Z,3.28
2017-10-05T21:28:20.240Z,2.60
2017-10-05T21:30:46.318Z,2.50
2017-10-05T21:33:12.341Z,2.70
2017-10-05T21:35:38.387Z,2.40
2017-10-05T21:38:04.423Z,3.42
2017-10-05T21:40:30.443Z,2.62
2017-10-05T21:42:56.531Z,2.60
2017-10-05T21:45:22.559Z,2.50
2017-10-05T21:47:48.615Z,2.03
2017-10-05T21:50:15.459Z,2.40
2017-10-05T21:52:41.487Z,2.22
2017-10-05T21:55:07.528Z,2.27
2017-10-05T21:57:34.327Z,2.30
2017-10-05T22:00:00.363Z,2.15
2017-10-05T22:02:26.375Z,2.33
2017-10-05T22:04:52.451Z,2.90
2017-10-05T22:07:18.503Z,2.72
2017-10-05T22:09:44.531Z,2.80
2017-10-05T22:12:10.579Z,2.60
2017-10-05T22:14:36.595Z,3.20
2017-10-05T22:17:02.619Z,2.83
2017-10-05T22:19:28.671Z,3.15
2017-10-05T22:21:55.436Z,3.03
2017-10-05T22:24:21.724Z,3.20
2017-10-05T22:26:47.775Z,2.50
2017-10-05T22:29:13.816Z,2.80
2017-10-05T22:31:39.832Z,3.03
2017-10-05T22:34:05.887Z,3.28
2017-10-05T22:36:31.899Z,3.00
2017-10-05T22:38:57.955Z,2.65
2017-10-05T22:41:24.368Z,2.80
2017-10-05T22:43:50.385Z,2.62
2017-10-05T22:46:16.393Z,3.00
2017-10-05T22:48:42.411Z,3.17
2017-10-05T22:51:08.423Z,2.90
2017-10-05T22:53:34.489Z,2.83
2017-10-05T22:56:00.621Z,3.30
2017-10-05T22:58:27.375Z,3.37
2017-10-05T23:00:54.355Z,3.10
2017-10-05T23:03:20.375Z,3.12
2017-10-05T23:05:46.401Z,3.40
2017-10-05T23:08:12.738Z,3.10
2017-10-05T23:10:38.755Z,2.97
2017-10-05T23:13:04.776Z,2.90
2017-10-05T23:15:30.844Z,2.80
2017-10-05T23:17:56.859Z,2.62
2017-10-05T23:20:22.907Z,2.75
2017-10-05T23:22:49.699Z,2.70
2017-10-05T23:25:15.773Z,2.50
2017-10-05T23:27:42.535Z,2.80
2017-10-05T23:30:08.599Z,2.80
2017-10-05T23:32:34.612Z,2.80
2017-10-05T23:35:00.632Z,2.65
2017-10-05T23:37:26.687Z,2.72
2017-10-05T23:39:53.459Z,2.72
2017-10-05T23:42:19.463Z,2.80
2017-10-05T23:44:48.214Z,2.95
2017-10-05T23:47:14.218Z,2.70
2017-10-05T23:49:40.229Z,2.80
2017-10-05T23:52:06.249Z,2.67
2017-10-05T23:54:32.257Z,3.20
2017-10-05T23:56:58.262Z,3.00
2017-10-05T23:59:24.292Z,3.00
